createdAt,value
2018-05-17T00:00:20.256Z,2.97
2018-05-17T00:02:48.625Z,2.60
2018-05-17T00:05:16.554Z,5.13
2018-05-17T00:07:44.420Z,3.12
2018-05-17T00:10:13.100Z,3.08
2018-05-17T00:12:40.969Z,3.40
2018-05-17T00:15:09.251Z,2.80
2018-05-17T00:17:37.512Z,2.92
2018-05-17T00:20:05.809Z,2.63
2018-05-17T00:22:34.902Z,2.90
2018-05-17T00:25:02.924Z,3.33
2018-05-17T00:27:30.627Z,2.85
2018-05-17T00:29:58.701Z,3.10
2018-05-17T00:32:27.217Z,4.07
2018-05-17T00:34:55.595Z,3.00
2018-05-17T00:37:24.034Z,2.80
2018-05-17T00:39:52.374Z,3.03
2018-05-17T00:42:20.511Z,2.83
2018-05-17T00:44:48.551Z,2.67
2018-05-17T00:47:16.421Z,3.30
2018-05-17T00:49:45.091Z,2.97
2018-05-17T00:52:13.170Z,3.10
2018-05-17T00:54:42.333Z,2.80
2018-05-17T00:57:10.310Z,3.22
2018-05-17T00:59:38.508Z,2.90
2018-05-17T01:02:08.064Z,3.17
2018-05-17T01:04:36.597Z,3.13
2018-05-17T01:07:04.665Z,5.43
2018-05-17T01:09:33.959Z,3.03
2018-05-17T01:12:01.724Z,2.80
2018-05-17T01:14:29.819Z,2.87
2018-05-17T01:16:57.758Z,3.43
2018-05-17T01:19:26.633Z,2.63
2018-05-17T01:21:54.518Z,3.08
2018-05-17T01:24:22.857Z,2.65
2018-05-17T01:26:50.649Z,2.70
2018-05-17T01:29:19.638Z,2.72
2018-05-17T01:31:47.823Z,3.50
2018-05-17T01:34:16.101Z,2.77
2018-05-17T01:36:44.770Z,2.75
2018-05-17T01:39:12.954Z,2.70
2018-05-17T01:41:42.637Z,3.10
2018-05-17T01:44:11.044Z,2.90
2018-05-17T01:46:40.618Z,2.92
2018-05-17T01:49:09.018Z,3.05
2018-05-17T01:51:38.050Z,2.72
2018-05-17T01:54:05.906Z,2.67
2018-05-17T01:56:33.844Z,3.00
2018-05-17T01:59:02.682Z,2.90
2018-05-17T02:01:31.007Z,2.83
2018-05-17T02:03:59.396Z,3.47
2018-05-17T02:06:27.354Z,3.00
2018-05-17T02:08:55.237Z,2.80
2018-05-17T02:11:23.547Z,2.62
2018-05-17T02:13:51.727Z,2.63
2018-05-17T02:16:19.798Z,2.80
2018-05-17T02:18:47.859Z,2.70
2018-05-17T02:21:17.019Z,2.97
2018-05-17T02:23:45.913Z,2.97
2018-05-17T02:26:14.499Z,2.78
2018-05-17T02:28:42.200Z,2.53
2018-05-17T02:31:10.103Z,3.70
2018-05-17T02:33:38.171Z,2.90
2018-05-17T02:36:06.163Z,3.63
2018-05-17T02:38:34.310Z,3.07
2018-05-17T02:41:02.807Z,4.27
2018-05-17T02:43:31.684Z,2.60
2018-05-17T02:45:59.384Z,2.72
2018-05-17T02:48:27.618Z,2.90
2018-05-17T02:50:56.136Z,3.00
2018-05-17T02:53:24.995Z,2.47
2018-05-17T02:55:53.466Z,3.20
2018-05-17T02:58:22.778Z,2.70
2018-05-17T03:00:51.584Z,2.70
2018-05-17T03:03:20.177Z,2.45
2018-05-17T03:05:48.406Z,3.00
2018-05-17T03:08:17.151Z,2.60
2018-05-17T03:10:45.163Z,3.23
2018-05-17T03:13:13.492Z,3.30
2018-05-17T03:15:41.715Z,2.87
2018-05-17T03:18:09.942Z,2.90
2018-05-17T03:20:38.032Z,3.37
2018-05-17T03:23:06.162Z,3.60
2018-05-17T03:25:34.403Z,2.70
2018-05-17T03:28:02.702Z,2.80
2018-05-17T03:30:30.814Z,4.12
2018-05-17T03:32:59.036Z,2.70
2018-05-17T03:35:27.921Z,3.07
2018-05-17T03:37:56.762Z,2.83
2018-05-17T03:40:25.081Z,2.60
2018-05-17T03:42:54.512Z,2.75
2018-05-17T03:45:23.233Z,2.97
2018-05-17T03:47:51.486Z,3.23
2018-05-17T03:50:19.610Z,2.60
2018-05-17T03:52:47.684Z,3.80
2018-05-17T03:55:16.488Z,3.50
2018-05-17T03:57:45.017Z,3.00
2018-05-17T04:00:13.344Z,2.90
2018-05-17T04:02:42.633Z,2.87
2018-05-17T04:05:11.529Z,3.00
2018-05-17T04:07:39.824Z,2.60
2018-05-17T04:10:08.430Z,3.57
2018-05-17T04:12:36.506Z,2.37
2018-05-17T04:15:04.929Z,2.70
2018-05-17T04:17:33.721Z,2.67
2018-05-17T04:20:02.805Z,3.83
2018-05-17T04:22:31.679Z,2.92
2018-05-17T04:24:59.757Z,2.77
2018-05-17T04:27:28.034Z,2.87
2018-05-17T04:29:56.909Z,2.67
2018-05-17T04:32:24.770Z,3.00
2018-05-17T04:34:52.631Z,2.50
2018-05-17T04:37:20.512Z,2.67
2018-05-17T04:39:49.690Z,4.13
2018-05-17T04:42:17.771Z,2.80
2018-05-17T04:44:45.478Z,2.47
2018-05-17T04:47:14.500Z,2.55
2018-05-17T04:49:43.305Z,2.85
2018-05-17T04:52:11.606Z,3.60
2018-05-17T04:54:40.555Z,2.65
2018-05-17T04:57:08.553Z,2.40
2018-05-17T04:59:36.741Z,2.47
2018-05-17T05:02:05.254Z,2.40
2018-05-17T05:04:33.571Z,2.15
2018-05-17T05:07:01.605Z,2.87
2018-05-17T05:09:29.703Z,3.20
2018-05-17T05:11:58.090Z,2.92
2018-05-17T05:14:26.431Z,2.77
2018-05-17T05:16:54.987Z,2.77
2018-05-17T05:19:23.247Z,2.70
2018-05-17T05:21:52.641Z,2.90
2018-05-17T05:24:21.332Z,4.07
2018-05-17T05:26:49.868Z,2.83
2018-05-17T05:29:17.961Z,5.18
2018-05-17T05:31:46.432Z,2.53
2018-05-17T05:34:14.808Z,3.23
2018-05-17T05:36:43.007Z,2.73
2018-05-17T05:39:12.072Z,4.03
2018-05-17T05:41:40.176Z,2.90
2018-05-17T05:44:09.373Z,3.60
2018-05-17T05:46:37.416Z,2.40
2018-05-17T05:49:05.991Z,8.98
2018-05-17T05:51:34.681Z,15.87
2018-05-17T05:54:03.249Z,15.93
2018-05-17T05:56:32.520Z,20.43
2018-05-17T05:59:00.802Z,19.40
2018-05-17T06:01:28.815Z,21.10
2018-05-17T06:03:57.035Z,20.47
2018-05-17T06:06:25.163Z,19.97
2018-05-17T06:08:54.367Z,20.13
2018-05-17T06:11:22.546Z,15.87
2018-05-17T06:13:52.314Z,22.63
2018-05-17T06:16:20.506Z,19.63
2018-05-17T06:18:48.576Z,19.00
2018-05-17T06:21:17.900Z,19.03
2018-05-17T06:23:47.081Z,23.23
2018-05-17T06:26:15.281Z,18.77
2018-05-17T06:28:43.924Z,20.40
2018-05-17T06:31:11.969Z,18.40
2018-05-17T06:33:40.090Z,17.70
2018-05-17T06:36:08.150Z,25.93
2018-05-17T06:38:37.087Z,21.57
2018-05-17T06:41:05.096Z,17.70
2018-05-17T06:43:33.274Z,21.83
2018-05-17T06:46:01.417Z,14.57
2018-05-17T06:48:29.398Z,15.30
2018-05-17T06:50:59.547Z,17.93
2018-05-17T06:53:27.511Z,20.87
2018-05-17T06:55:56.930Z,16.33
2018-05-17T06:58:24.871Z,17.30
2018-05-17T07:00:53.385Z,21.27
2018-05-17T07:03:21.664Z,24.90
2018-05-17T07:05:50.098Z,19.23
2018-05-17T07:08:19.164Z,19.43
2018-05-17T07:10:47.673Z,23.67
2018-05-17T07:13:15.937Z,15.37
2018-05-17T07:15:43.911Z,20.50
2018-05-17T07:18:12.505Z,18.60
2018-05-17T07:20:40.761Z,21.67
2018-05-17T07:23:09.060Z,17.87
2018-05-17T07:25:37.147Z,21.87
2018-05-17T07:28:05.342Z,21.80
2018-05-17T07:30:34.046Z,18.77
2018-05-17T07:33:02.128Z,15.97
2018-05-17T07:35:30.447Z,28.37
2018-05-17T07:37:58.841Z,16.87
2018-05-17T07:40:27.481Z,16.40
2018-05-17T07:42:55.794Z,17.90
2018-05-17T07:45:24.127Z,19.57
2018-05-17T07:47:56.724Z,17.20
2018-05-17T07:50:25.705Z,21.07
2018-05-17T07:52:54.084Z,19.17
2018-05-17T07:55:22.150Z,17.37
2018-05-17T07:57:51.019Z,14.90
2018-05-17T08:00:19.207Z,18.83
2018-05-17T08:02:47.598Z,15.30
2018-05-17T08:05:16.707Z,15.27
2018-05-17T08:07:44.795Z,21.30
2018-05-17T08:10:12.977Z,22.40
2018-05-17T08:12:41.096Z,25.57
2018-05-17T08:15:09.379Z,14.60
2018-05-17T08:17:38.385Z,21.90
2018-05-17T08:20:06.305Z,16.90
2018-05-17T08:22:34.544Z,19.47
2018-05-17T08:25:02.663Z,16.57
2018-05-17T08:27:30.747Z,20.20
2018-05-17T08:29:59.168Z,22.30
2018-05-17T08:32:27.344Z,25.43
2018-05-17T08:34:56.097Z,21.17
2018-05-17T08:37:25.396Z,18.83
2018-05-17T08:39:54.271Z,16.00
2018-05-17T08:42:22.659Z,19.00
2018-05-17T08:44:51.551Z,17.37
2018-05-17T08:47:19.750Z,16.57
2018-05-17T08:49:49.307Z,12.73
2018-05-17T08:52:18.273Z,17.33
2018-05-17T08:54:46.371Z,21.97
2018-05-17T08:57:14.708Z,17.63
2018-05-17T08:59:43.331Z,15.90
2018-05-17T09:02:11.702Z,21.83
2018-05-17T09:04:39.921Z,21.80
2018-05-17T09:07:08.513Z,20.10
2018-05-17T09:09:36.552Z,17.83
2018-05-17T09:12:05.213Z,22.47
2018-05-17T09:14:33.269Z,17.17
2018-05-17T09:17:02.241Z,21.43
2018-05-17T09:19:30.539Z,19.73
2018-05-17T09:21:58.674Z,21.03
2018-05-17T09:24:27.065Z,20.47
2018-05-17T09:26:55.809Z,19.07
2018-05-17T09:29:24.375Z,17.50
2018-05-17T09:31:53.269Z,18.67
2018-05-17T09:34:21.635Z,20.63
2018-05-17T09:36:49.805Z,15.37
2018-05-17T09:39:18.863Z,19.50
2018-05-17T09:41:46.999Z,17.33
2018-05-17T09:44:15.163Z,20.77
2018-05-17T09:46:43.281Z,19.00
2018-05-17T09:49:11.641Z,14.50
2018-05-17T09:51:40.364Z,13.57
2018-05-17T09:54:08.534Z,17.47
2018-05-17T09:56:36.619Z,20.40
2018-05-17T09:59:05.712Z,16.13
2018-05-17T10:01:33.753Z,15.03
2018-05-17T10:04:02.056Z,16.70
2018-05-17T10:06:30.330Z,16.20
2018-05-17T10:08:59.034Z,18.03
2018-05-17T10:11:27.509Z,12.77
2018-05-17T10:13:55.861Z,15.93
2018-05-17T10:16:24.812Z,17.53
2018-05-17T10:18:53.081Z,17.27
2018-05-17T10:21:21.621Z,23.50
2018-05-17T10:23:50.716Z,14.03
2018-05-17T10:26:19.838Z,19.93
2018-05-17T10:28:48.413Z,18.77
2018-05-17T10:31:16.888Z,18.97
2018-05-17T10:33:45.587Z,19.90
2018-05-17T10:36:13.619Z,16.80
2018-05-17T10:38:42.440Z,20.33
2018-05-17T10:41:10.829Z,15.47
2018-05-17T10:43:39.159Z,16.33
2018-05-17T10:46:08.048Z,18.07
2018-05-17T10:48:36.929Z,23.40
2018-05-17T10:51:04.920Z,18.30
2018-05-17T10:53:33.263Z,21.00
2018-05-17T10:56:01.641Z,21.67
2018-05-17T10:58:30.487Z,19.07
2018-05-17T11:00:59.128Z,21.97
2018-05-17T11:03:28.408Z,22.90
2018-05-17T11:05:56.849Z,20.40
2018-05-17T11:08:25.122Z,23.00
2018-05-17T11:10:53.028Z,24.70
2018-05-17T11:13:21.102Z,21.30
2018-05-17T11:15:49.173Z,21.13
2018-05-17T11:18:17.192Z,20.50
2018-05-17T11:20:45.487Z,20.80
2018-05-17T11:23:13.895Z,19.00
2018-05-17T11:26:13.628Z,23.40
2018-05-17T11:28:42.124Z,15.40
2018-05-17T11:31:10.768Z,21.07
2018-05-17T11:33:39.113Z,19.40
2018-05-17T11:36:19.813Z,23.30
2018-05-17T11:38:48.499Z,23.17
2018-05-17T11:41:16.705Z,14.03
2018-05-17T11:43:45.045Z,22.67
2018-05-17T11:46:13.330Z,17.57
2018-05-17T11:48:42.192Z,20.13
2018-05-17T11:51:10.065Z,17.83
2018-05-17T11:53:38.692Z,18.77
2018-05-17T11:56:07.010Z,18.37
2018-05-17T11:58:35.046Z,21.23
2018-05-17T12:01:03.063Z,19.27
2018-05-17T12:03:31.419Z,20.80
2018-05-17T12:05:59.696Z,17.20
2018-05-17T12:08:27.777Z,18.33
2018-05-17T12:10:56.129Z,17.07
2018-05-17T12:13:24.741Z,16.33
2018-05-17T12:15:53.233Z,20.27
2018-05-17T12:18:21.497Z,22.07
2018-05-17T12:20:49.687Z,21.00
2018-05-17T12:23:17.956Z,19.00
2018-05-17T12:25:45.910Z,19.17
2018-05-17T12:28:14.804Z,18.67
2018-05-17T12:30:42.874Z,17.80
2018-05-17T12:33:11.968Z,23.33
2018-05-17T12:35:40.232Z,19.67
2018-05-17T12:38:08.290Z,22.83
2018-05-17T12:40:36.450Z,16.93
2018-05-17T12:43:04.756Z,20.53
2018-05-17T12:45:33.101Z,18.00
2018-05-17T12:48:01.784Z,21.67
2018-05-17T12:50:30.112Z,20.17
2018-05-17T12:52:59.036Z,19.97
2018-05-17T12:55:27.476Z,18.80
2018-05-17T12:57:56.704Z,18.87
2018-05-17T13:00:25.242Z,15.73
2018-05-17T13:02:53.632Z,25.93
2018-05-17T13:05:21.753Z,23.40
2018-05-17T13:07:49.674Z,24.83
2018-05-17T13:10:18.782Z,22.87
2018-05-17T13:12:47.240Z,20.80
2018-05-17T13:15:16.543Z,19.13
2018-05-17T13:17:45.643Z,18.53
2018-05-17T13:20:13.839Z,21.00
2018-05-17T13:22:42.553Z,17.63
2018-05-17T13:25:10.798Z,20.67
2018-05-17T13:27:39.296Z,24.67
2018-05-17T13:30:08.032Z,19.33
2018-05-17T13:32:37.524Z,22.77
2018-05-17T13:35:05.786Z,21.63
2018-05-17T13:37:34.747Z,16.70
2018-05-17T13:40:03.562Z,17.13
2018-05-17T13:42:32.124Z,18.90
2018-05-17T13:45:00.787Z,18.80
2018-05-17T13:47:29.279Z,18.27
2018-05-17T13:49:58.537Z,14.07
2018-05-17T13:52:27.172Z,18.70
2018-05-17T13:54:55.499Z,16.57
2018-05-17T13:57:23.551Z,21.43
2018-05-17T13:59:52.601Z,22.80
2018-05-17T14:02:20.823Z,20.47
2018-05-17T14:04:49.309Z,23.50
2018-05-17T14:07:17.433Z,20.07
2018-05-17T14:09:45.962Z,21.83
2018-05-17T14:12:14.003Z,17.87
2018-05-17T14:14:42.095Z,21.17
2018-05-17T14:17:11.389Z,21.60
2018-05-17T14:19:39.815Z,19.33
2018-05-17T14:22:07.918Z,18.03
2018-05-17T14:24:36.198Z,20.57
2018-05-17T14:27:04.470Z,20.23
2018-05-17T14:29:32.669Z,22.80
2018-05-17T14:32:00.804Z,19.33
2018-05-17T14:34:29.306Z,19.50
2018-05-17T14:36:58.105Z,15.93
2018-05-17T14:39:26.133Z,19.40
2018-05-17T14:41:54.649Z,17.53
2018-05-17T14:44:22.922Z,18.50
2018-05-17T14:46:51.493Z,14.13
2018-05-17T14:49:20.489Z,17.60
2018-05-17T14:51:49.115Z,17.40
2018-05-17T14:54:17.575Z,18.93
2018-05-17T14:56:46.167Z,19.80
2018-05-17T14:59:14.495Z,18.57
2018-05-17T15:01:42.546Z,15.57
2018-05-17T15:04:11.090Z,15.77
2018-05-17T15:06:40.587Z,14.53
2018-05-17T15:09:09.053Z,16.48
2018-05-17T15:11:37.951Z,21.23
2018-05-17T15:14:06.572Z,15.73
2018-05-17T15:16:35.022Z,17.07
2018-05-17T15:19:03.182Z,15.27
2018-05-17T15:21:31.678Z,17.23
2018-05-17T15:24:00.318Z,16.43
2018-05-17T15:26:28.459Z,22.57
2018-05-17T15:28:57.088Z,18.83
2018-05-17T15:31:25.977Z,19.13
2018-05-17T15:33:55.520Z,20.07
2018-05-17T15:36:23.537Z,19.13
2018-05-17T15:38:51.722Z,21.13
2018-05-17T15:41:20.722Z,18.73
2018-05-17T15:43:50.309Z,16.93
2018-05-17T15:46:18.304Z,15.53
2018-05-17T15:48:46.656Z,20.43
2018-05-17T15:51:16.261Z,18.83
2018-05-17T15:53:45.389Z,13.37
2018-05-17T15:56:13.925Z,17.57
2018-05-17T15:58:43.529Z,17.30
2018-05-17T16:01:12.245Z,17.90
2018-05-17T16:03:40.526Z,15.40
2018-05-17T16:06:09.126Z,19.27
2018-05-17T16:08:37.587Z,15.70
2018-05-17T16:11:05.839Z,17.90
2018-05-17T16:13:34.611Z,15.53
2018-05-17T16:16:03.116Z,17.73
2018-05-17T16:18:32.406Z,15.60
2018-05-17T16:21:00.753Z,13.67
2018-05-17T16:23:29.134Z,14.40
2018-05-17T16:25:57.170Z,16.50
2018-05-17T16:28:25.729Z,15.17
2018-05-17T16:30:54.000Z,13.97
2018-05-17T16:33:22.471Z,13.93
2018-05-17T16:35:50.698Z,12.63
2018-05-17T16:38:19.010Z,16.07
2018-05-17T16:40:47.930Z,16.17
2018-05-17T16:43:16.317Z,13.27
2018-05-17T16:45:44.665Z,20.93
2018-05-17T16:48:13.107Z,18.67
2018-05-17T16:50:41.725Z,15.47
2018-05-17T16:53:09.996Z,15.13
2018-05-17T16:55:38.881Z,13.70
2018-05-17T16:58:07.244Z,12.33
2018-05-17T17:00:36.237Z,15.20
2018-05-17T17:03:05.340Z,13.23
2018-05-17T17:05:34.898Z,16.53
2018-05-17T17:08:03.412Z,13.13
2018-05-17T17:10:31.947Z,11.83
2018-05-17T17:13:00.611Z,13.87
2018-05-17T17:15:29.079Z,12.20
2018-05-17T17:17:58.123Z,15.43
2018-05-17T17:20:26.897Z,12.93
2018-05-17T17:22:55.555Z,14.17
2018-05-17T17:25:24.638Z,15.77
2018-05-17T17:27:53.709Z,11.30
2018-05-17T17:30:22.398Z,11.97
2018-05-17T17:32:51.586Z,11.87
2018-05-17T17:35:20.597Z,13.33
2018-05-17T17:37:48.864Z,13.23
2018-05-17T17:40:17.849Z,15.23
2018-05-17T17:42:46.034Z,14.83
2018-05-17T17:45:14.044Z,10.17
2018-05-17T17:47:42.489Z,14.60
2018-05-17T17:50:10.970Z,13.43
2018-05-17T17:52:39.533Z,9.40
2018-05-17T17:55:08.727Z,11.10
2018-05-17T17:57:37.352Z,11.13
2018-05-17T18:00:05.721Z,8.90
2018-05-17T18:02:33.772Z,10.83
2018-05-17T18:05:02.561Z,10.57
2018-05-17T18:07:30.523Z,10.23
2018-05-17T18:09:58.986Z,11.20
2018-05-17T18:12:27.353Z,7.97
2018-05-17T18:14:56.502Z,8.93
2018-05-17T18:17:24.937Z,9.20
2018-05-17T18:19:54.246Z,10.00
2018-05-17T18:22:23.472Z,9.30
2018-05-17T18:24:52.005Z,9.90
2018-05-17T18:27:20.067Z,11.70
2018-05-17T18:29:48.774Z,13.03
2018-05-17T18:32:17.911Z,9.13
2018-05-17T18:34:47.404Z,8.60
2018-05-17T18:37:15.668Z,8.97
2018-05-17T18:39:43.827Z,9.07
2018-05-17T18:42:12.631Z,9.63
2018-05-17T18:44:41.078Z,10.00
2018-05-17T18:47:10.662Z,9.93
2018-05-17T18:49:39.025Z,9.77
2018-05-17T18:52:08.555Z,9.77
2018-05-17T18:54:36.939Z,6.87
2018-05-17T18:57:05.529Z,7.43
2018-05-17T18:59:34.608Z,7.83
2018-05-17T19:02:03.705Z,7.63
2018-05-17T19:04:32.608Z,10.47
2018-05-17T19:07:01.887Z,8.07
2018-05-17T19:09:30.370Z,7.37
2018-05-17T19:11:59.064Z,9.53
2018-05-17T19:14:28.283Z,8.00
2018-05-17T19:16:56.681Z,8.77
2018-05-17T19:19:26.166Z,9.20
2018-05-17T19:21:54.712Z,8.90
2018-05-17T19:24:22.855Z,7.07
2018-05-17T19:26:51.467Z,5.03
2018-05-17T19:29:19.750Z,6.47
2018-05-17T19:31:48.097Z,7.07
2018-05-17T19:34:16.278Z,7.20
2018-05-17T19:36:44.646Z,5.93
2018-05-17T19:39:13.199Z,7.03
2018-05-17T19:41:41.636Z,6.00
2018-05-17T19:44:09.866Z,8.90
2018-05-17T19:46:38.204Z,7.50
2018-05-17T19:49:06.959Z,6.67
2018-05-17T19:51:35.310Z,7.43
2018-05-17T19:54:03.712Z,6.03
2018-05-17T19:56:33.352Z,6.87
2018-05-17T19:59:01.803Z,6.50
2018-05-17T20:01:31.049Z,5.60
2018-05-17T20:03:59.181Z,7.27
2018-05-17T20:06:28.890Z,6.90
2018-05-17T20:08:58.165Z,6.43
2018-05-17T20:11:26.445Z,6.67
2018-05-17T20:13:55.349Z,9.53
2018-05-17T20:16:24.767Z,8.33
2018-05-17T20:18:53.127Z,6.57
2018-05-17T20:21:22.398Z,6.70
2018-05-17T20:23:50.925Z,9.97
2018-05-17T20:26:19.590Z,6.17
2018-05-17T20:28:48.463Z,7.67
2018-05-17T20:31:16.942Z,6.90
2018-05-17T20:33:45.327Z,5.67
2018-05-17T20:36:14.576Z,8.27
2018-05-17T20:38:42.744Z,8.97
2018-05-17T20:41:10.666Z,5.77
2018-05-17T20:43:39.691Z,6.37
2018-05-17T20:46:08.519Z,6.37
2018-05-17T20:48:36.715Z,6.73
2018-05-17T20:51:06.259Z,7.37
2018-05-17T20:53:34.816Z,6.17
2018-05-17T20:56:03.466Z,6.90
2018-05-17T20:58:32.052Z,5.83
2018-05-17T21:01:01.607Z,6.10
2018-05-17T21:03:30.023Z,6.97
2018-05-17T21:05:58.742Z,5.33
2018-05-17T21:08:27.623Z,5.97
2018-05-17T21:10:55.843Z,7.43
2018-05-17T21:13:24.782Z,6.00
2018-05-17T21:15:52.932Z,7.17
2018-05-17T21:18:21.132Z,5.20
2018-05-17T21:20:50.166Z,5.10
2018-05-17T21:23:18.583Z,4.57
2018-05-17T21:25:47.184Z,6.67
2018-05-17T21:28:16.576Z,5.20
2018-05-17T21:30:44.738Z,5.37
2018-05-17T21:33:12.805Z,6.10
2018-05-17T21:35:41.316Z,5.70
2018-05-17T21:38:09.522Z,5.37
2018-05-17T21:40:38.687Z,5.50
2018-05-17T21:43:07.669Z,6.77
2018-05-17T21:45:35.719Z,6.10
2018-05-17T21:48:04.175Z,5.80
2018-05-17T21:50:32.687Z,5.27
2018-05-17T21:53:01.067Z,5.73
2018-05-17T21:55:30.371Z,6.40
2018-05-17T21:57:59.087Z,5.87
2018-05-17T22:00:27.317Z,4.90
2018-05-17T22:02:56.420Z,5.47
2018-05-17T22:05:25.619Z,6.73
2018-05-17T22:07:54.157Z,6.00
2018-05-17T22:10:22.670Z,4.70
2018-05-17T22:12:51.897Z,4.83
2018-05-17T22:15:21.287Z,5.70
2018-05-17T22:17:49.924Z,4.67
2018-05-17T22:20:18.484Z,4.23
2018-05-17T22:22:48.001Z,5.67
2018-05-17T22:25:16.917Z,4.53
2018-05-17T22:27:45.902Z,4.93
2018-05-17T22:30:13.797Z,6.17
2018-05-17T22:32:42.062Z,5.90
2018-05-17T22:35:10.943Z,4.67
2018-05-17T22:37:39.328Z,4.20
2018-05-17T22:40:07.474Z,5.20
2018-05-17T22:42:35.635Z,5.83
2018-05-17T22:45:04.064Z,5.30
2018-05-17T22:47:32.213Z,4.50
2018-05-17T22:50:01.717Z,5.20
2018-05-17T22:52:30.649Z,4.17
2018-05-17T22:54:58.946Z,4.37
2018-05-17T22:57:27.495Z,4.73
2018-05-17T22:59:56.151Z,5.67
2018-05-17T23:02:25.117Z,5.00
2018-05-17T23:04:53.923Z,4.50
2018-05-17T23:07:22.914Z,5.60
2018-05-17T23:09:51.912Z,5.53
2018-05-17T23:12:21.224Z,5.87
2018-05-17T23:14:50.618Z,4.37
2018-05-17T23:17:19.419Z,6.10
2018-05-17T23:19:48.077Z,5.30
2018-05-17T23:22:16.337Z,5.60
2018-05-17T23:24:44.413Z,3.63
2018-05-17T23:27:13.142Z,3.33
2018-05-17T23:29:42.478Z,4.27
2018-05-17T23:32:11.082Z,4.57
2018-05-17T23:34:39.238Z,4.67
2018-05-17T23:37:07.669Z,4.30
2018-05-17T23:39:36.021Z,4.83
2018-05-17T23:42:04.398Z,5.30
2018-05-17T23:44:32.706Z,4.40
2018-05-17T23:47:01.317Z,3.73
2018-05-17T23:49:29.401Z,5.13
2018-05-17T23:51:57.892Z,4.50
2018-05-17T23:54:26.386Z,5.40
2018-05-17T23:56:54.649Z,4.13
2018-05-17T23:59:22.888Z,4.77
